<?xml version="1.0" encoding="UTF-8" standalone="no" ?>
<gpx xmlns="http://www.topografix.com/GPX/1/1" xmlns:xsi="http://www.w3.org/2001/XMLSchema-instance" xsi:schemaLocation="http://www.topografix.com/GPX/1/1 http://www.topografix.com/GPX/1/1/gpx.xsd" version="1.1" creator="VisuGPX - https://www.visugpx.com">
  <metadata>
    <name>Etape 2 Férel - Les Moûtiers</name>
    <desc><![CDATA[Randonnée vélo Rennes - Hendaye, empruntant la Vélodyssée à partir de Saint-Brevin-Les-Pins. ]]></desc>
  </metadata>
  <trk>
    <name><![CDATA[Sequence 2]]></name>
    <trkseg>
      <trkpt lat="47.47995" lon="-2.34012">
        <ele>28</ele>
        <time>2016-07-22T04:53:22Z</time>
      </trkpt>
      <trkpt lat="47.47988" lon="-2.33988">
        <ele>36</ele>
        <time>2016-07-22T04:53:27Z</time>
      </trkpt>
      <trkpt lat="47.47972" lon="-2.33958">
        <ele>36</ele>
        <time>2016-07-22T04:53:31Z</time>
      </trkpt>
      <trkpt lat="47.47954" lon="-2.33926">
        <ele>39</ele>
        <time>2016-07-22T04:53:36Z</time>
      </trkpt>
      <trkpt lat="47.47937" lon="-2.33895">
        <ele>42</ele>
        <time>2016-07-22T04:53:41Z</time>
      </trkpt>
      <trkpt lat="47.47928" lon="-2.33874">
        <ele>39</ele>
        <time>2016-07-22T04:53:44Z</time>
      </trkpt>
      <trkpt lat="47.47912" lon="-2.33845">
        <ele>38</ele>
        <time>2016-07-22T04:53:48Z</time>
      </trkpt>
      <trkpt lat="47.47893" lon="-2.33815">
        <ele>38</ele>
        <time>2016-07-22T04:53:54Z</time>
      </trkpt>
      <trkpt lat="47.4787" lon="-2.33783">
        <ele>34</ele>
        <time>2016-07-22T04:54:00Z</time>
      </trkpt>
      <trkpt lat="47.47858" lon="-2.33761">
        <ele>34</ele>
        <time>2016-07-22T04:54:03Z</time>
      </trkpt>
      <trkpt lat="47.4784" lon="-2.33732">
        <ele>36</ele>
        <time>2016-07-22T04:54:08Z</time>
      </trkpt>
      <trkpt lat="47.47819" lon="-2.33711">
        <ele>35</ele>
        <time>2016-07-22T04:54:13Z</time>
      </trkpt>
      <trkpt lat="47.47794" lon="-2.3368">
        <ele>37</ele>
        <time>2016-07-22T04:54:19Z</time>
      </trkpt>
      <trkpt lat="47.47776" lon="-2.33665">
        <ele>37</ele>
        <time>2016-07-22T04:54:23Z</time>
      </trkpt>
      <trkpt lat="47.47753" lon="-2.33645">
        <ele>37</ele>
        <time>2016-07-22T04:54:28Z</time>
      </trkpt>
      <trkpt lat="47.47709" lon="-2.33618">
        <ele>38</ele>
        <time>2016-07-22T04:54:37Z</time>
      </trkpt>
      <trkpt lat="47.477" lon="-2.33611">
        <ele>37</ele>
        <time>2016-07-22T04:54:39Z</time>
      </trkpt>
      <trkpt lat="47.4768" lon="-2.336">
        <ele>37</ele>
        <time>2016-07-22T04:54:43Z</time>
      </trkpt>
      <trkpt lat="47.47652" lon="-2.33575">
        <ele>34</ele>
        <time>2016-07-22T04:54:49Z</time>
      </trkpt>
      <trkpt lat="47.4763" lon="-2.3356">
        <ele>34</ele>
        <time>2016-07-22T04:54:53Z</time>
      </trkpt>
      <trkpt lat="47.47602" lon="-2.33541">
        <ele>34</ele>
        <time>2016-07-22T04:54:58Z</time>
      </trkpt>
      <trkpt lat="47.47572" lon="-2.33522">
        <ele>35</ele>
        <time>2016-07-22T04:55:03Z</time>
      </trkpt>
      <trkpt lat="47.47532" lon="-2.3351">
        <ele>32</ele>
        <time>2016-07-22T04:55:09Z</time>
      </trkpt>
      <trkpt lat="47.47499" lon="-2.33492">
        <ele>35</ele>
        <time>2016-07-22T04:55:14Z</time>
      </trkpt>
      <trkpt lat="47.47477" lon="-2.33482">
        <ele>37</ele>
        <time>2016-07-22T04:55:18Z</time>
      </trkpt>
      <trkpt lat="47.47443" lon="-2.33469">
        <ele>38</ele>
        <time>2016-07-22T04:55:25Z</time>
      </trkpt>
      <trkpt lat="47.47415" lon="-2.33457">
        <ele>38</ele>
        <time>2016-07-22T04:55:31Z</time>
      </trkpt>
      <trkpt lat="47.47405" lon="-2.33453">
        <ele>38</ele>
        <time>2016-07-22T04:55:33Z</time>
      </trkpt>
      <trkpt lat="47.4738" lon="-2.33442">
        <ele>37</ele>
        <time>2016-07-22T04:55:38Z</time>
      </trkpt>
      <trkpt lat="47.47347" lon="-2.33431">
        <ele>36</ele>
        <time>2016-07-22T04:55:44Z</time>
      </trkpt>
      <trkpt lat="47.47324" lon="-2.33428">
        <ele>37</ele>
        <time>2016-07-22T04:55:48Z</time>
      </trkpt>
      <trkpt lat="47.47299" lon="-2.33428">
        <ele>37</ele>
        <time>2016-07-22T04:55:53Z</time>
      </trkpt>
      <trkpt lat="47.47258" lon="-2.33432">
        <ele>36</ele>
        <time>2016-07-22T04:56:00Z</time>
      </trkpt>
      <trkpt lat="47.47241" lon="-2.33439">
        <ele>36</ele>
        <time>2016-07-22T04:56:03Z</time>
      </trkpt>
      <trkpt lat="47.47213" lon="-2.33453">
        <ele>35</ele>
        <time>2016-07-22T04:56:08Z</time>
      </trkpt>
      <trkpt lat="47.47184" lon="-2.3347">
        <ele>33</ele>
        <time>2016-07-22T04:56:13Z</time>
      </trkpt>
      <trkpt lat="47.47153" lon="-2.33487">
        <ele>30</ele>
        <time>2016-07-22T04:56:18Z</time>
      </trkpt>
      <trkpt lat="47.47104" lon="-2.33506">
        <ele>30</ele>
        <time>2016-07-22T04:56:26Z</time>
      </trkpt>
      <trkpt lat="47.47093" lon="-2.33508">
        <ele>31</ele>
        <time>2016-07-22T04:56:28Z</time>
      </trkpt>
      <trkpt lat="47.47056" lon="-2.33479">
        <ele>35</ele>
        <time>2016-07-22T04:56:35Z</time>
      </trkpt>
      <trkpt lat="47.47031" lon="-2.33463">
        <ele>35</ele>
        <time>2016-07-22T04:56:40Z</time>
      </trkpt>
      <trkpt lat="47.47005" lon="-2.33449">
        <ele>36</ele>
        <time>2016-07-22T04:56:45Z</time>
      </trkpt>
      <trkpt lat="47.4698" lon="-2.33441">
        <ele>37</ele>
        <time>2016-07-22T04:56:50Z</time>
      </trkpt>
      <trkpt lat="47.46966" lon="-2.33435">
        <ele>37</ele>
        <time>2016-07-22T04:56:53Z</time>
      </trkpt>
      <trkpt lat="47.46922" lon="-2.33426">
        <ele>37</ele>
        <time>2016-07-22T04:57:02Z</time>
      </trkpt>
      <trkpt lat="47.46907" lon="-2.33422">
        <ele>38</ele>
        <time>2016-07-22T04:57:05Z</time>
      </trkpt>
      <trkpt lat="47.46892" lon="-2.33414">
        <ele>39</ele>
        <time>2016-07-22T04:57:08Z</time>
      </trkpt>
      <trkpt lat="47.46871" lon="-2.33387">
        <ele>41</ele>
        <time>2016-07-22T04:57:13Z</time>
      </trkpt>
      <trkpt lat="47.46835" lon="-2.33357">
        <ele>39</ele>
        <time>2016-07-22T04:57:21Z</time>
      </trkpt>
      <trkpt lat="47.46822" lon="-2.33351">
        <ele>37</ele>
        <time>2016-07-22T04:57:24Z</time>
      </trkpt>
      <trkpt lat="47.46778" lon="-2.33351">
        <ele>35</ele>
        <time>2016-07-22T04:57:32Z</time>
      </trkpt>
      <trkpt lat="47.46766" lon="-2.33348">
        <ele>36</ele>
        <time>2016-07-22T04:57:34Z</time>
      </trkpt>
      <trkpt lat="47.46734" lon="-2.3334">
        <ele>39</ele>
        <time>2016-07-22T04:57:40Z</time>
      </trkpt>
      <trkpt lat="47.46712" lon="-2.33328">
        <ele>38</ele>
        <time>2016-07-22T04:57:44Z</time>
      </trkpt>
      <trkpt lat="47.46689" lon="-2.33309">
        <ele>40</ele>
        <time>2016-07-22T04:57:48Z</time>
      </trkpt>
      <trkpt lat="47.46644" lon="-2.33275">
        <ele>37</ele>
        <time>2016-07-22T04:57:56Z</time>
      </trkpt>
      <trkpt lat="47.46633" lon="-2.33262">
        <ele>37</ele>
        <time>2016-07-22T04:57:58Z</time>
      </trkpt>
      <trkpt lat="47.46585" lon="-2.33211">
        <ele>40</ele>
        <time>2016-07-22T04:58:07Z</time>
      </trkpt>
      <trkpt lat="47.4658" lon="-2.33207">
        <ele>41</ele>
        <time>2016-07-22T04:58:08Z</time>
      </trkpt>
      <trkpt lat="47.46552" lon="-2.33188">
        <ele>42</ele>
        <time>2016-07-22T04:58:13Z</time>
      </trkpt>
      <trkpt lat="47.46506" lon="-2.33176">
        <ele>38</ele>
        <time>2016-07-22T04:58:22Z</time>
      </trkpt>
      <trkpt lat="47.46488" lon="-2.33169">
        <ele>39</ele>
        <time>2016-07-22T04:58:26Z</time>
      </trkpt>
      <trkpt lat="47.46469" lon="-2.33164">
        <ele>39</ele>
        <time>2016-07-22T04:58:30Z</time>
      </trkpt>
      <trkpt lat="47.46436" lon="-2.33155">
        <ele>37</ele>
        <time>2016-07-22T04:58:37Z</time>
      </trkpt>
      <trkpt lat="47.46411" lon="-2.33146">
        <ele>38</ele>
        <time>2016-07-22T04:58:42Z</time>
      </trkpt>
      <trkpt lat="47.46405" lon="-2.33144">
        <ele>37</ele>
        <time>2016-07-22T04:58:43Z</time>
      </trkpt>
      <trkpt lat="47.46368" lon="-2.33134">
        <ele>39</ele>
        <time>2016-07-22T04:58:50Z</time>
      </trkpt>
      <trkpt lat="47.46328" lon="-2.33107">
        <ele>35</ele>
        <time>2016-07-22T04:58:57Z</time>
      </trkpt>
      <trkpt lat="47.46323" lon="-2.33102">
        <ele>34</ele>
        <time>2016-07-22T04:58:58Z</time>
      </trkpt>
      <trkpt lat="47.46294" lon="-2.33074">
        <ele>32</ele>
        <time>2016-07-22T04:59:03Z</time>
      </trkpt>
      <trkpt lat="47.46265" lon="-2.33043">
        <ele>33</ele>
        <time>2016-07-22T04:59:08Z</time>
      </trkpt>
      <trkpt lat="47.46237" lon="-2.33011">
        <ele>34</ele>
        <time>2016-07-22T04:59:13Z</time>
      </trkpt>
      <trkpt lat="47.4621" lon="-2.32986">
        <ele>32</ele>
        <time>2016-07-22T04:59:18Z</time>
      </trkpt>
      <trkpt lat="47.46183" lon="-2.32951">
        <ele>33</ele>
        <time>2016-07-22T04:59:23Z</time>
      </trkpt>
      <trkpt lat="47.46154" lon="-2.32909">
        <ele>29</ele>
        <time>2016-07-22T04:59:28Z</time>
      </trkpt>
      <trkpt lat="47.46114" lon="-2.32881">
        <ele>25</ele>
        <time>2016-07-22T04:59:34Z</time>
      </trkpt>
      <trkpt lat="47.46072" lon="-2.32867">
        <ele>28</ele>
        <time>2016-07-22T04:59:41Z</time>
      </trkpt>
      <trkpt lat="47.46062" lon="-2.32862">
        <ele>31</ele>
        <time>2016-07-22T04:59:43Z</time>
      </trkpt>
      <trkpt lat="47.4602" lon="-2.32833">
        <ele>31</ele>
        <time>2016-07-22T04:59:50Z</time>
      </trkpt>
      <trkpt lat="47.45987" lon="-2.32817">
        <ele>30</ele>
        <time>2016-07-22T04:59:56Z</time>
      </trkpt>
      <trkpt lat="47.45959" lon="-2.32802">
        <ele>30</ele>
        <time>2016-07-22T05:00:01Z</time>
      </trkpt>
      <trkpt lat="47.45926" lon="-2.32773">
        <ele>32</ele>
        <time>2016-07-22T05:00:07Z</time>
      </trkpt>
      <trkpt lat="47.45915" lon="-2.32766">
        <ele>33</ele>
        <time>2016-07-22T05:00:09Z</time>
      </trkpt>
      <trkpt lat="47.45891" lon="-2.32741">
        <ele>35</ele>
        <time>2016-07-22T05:00:13Z</time>
      </trkpt>
      <trkpt lat="47.45863" lon="-2.3271">
        <ele>37</ele>
        <time>2016-07-22T05:00:18Z</time>
      </trkpt>
      <trkpt lat="47.4583" lon="-2.32669">
        <ele>39</ele>
        <time>2016-07-22T05:00:24Z</time>
      </trkpt>
      <trkpt lat="47.45792" lon="-2.32631">
        <ele>42</ele>
        <time>2016-07-22T05:00:32Z</time>
      </trkpt>
      <trkpt lat="47.45776" lon="-2.3262">
        <ele>40</ele>
        <time>2016-07-22T05:00:35Z</time>
      </trkpt>
      <trkpt lat="47.4576" lon="-2.32609">
        <ele>38</ele>
        <time>2016-07-22T05:00:38Z</time>
      </trkpt>
      <trkpt lat="47.4571" lon="-2.32574">
        <ele>33</ele>
        <time>2016-07-22T05:00:47Z</time>
      </trkpt>
      <trkpt lat="47.4569" lon="-2.32555">
        <ele>30</ele>
        <time>2016-07-22T05:00:51Z</time>
      </trkpt>
      <trkpt lat="47.45662" lon="-2.32523">
        <ele>27</ele>
        <time>2016-07-22T05:00:57Z</time>
      </trkpt>
      <trkpt lat="47.45658" lon="-2.32518">
        <ele>27</ele>
        <time>2016-07-22T05:00:58Z</time>
      </trkpt>
      <trkpt lat="47.45638" lon="-2.32475">
        <ele>27</ele>
        <time>2016-07-22T05:01:03Z</time>
      </trkpt>
      <trkpt lat="47.45619" lon="-2.32437">
        <ele>27</ele>
        <time>2016-07-22T05:01:08Z</time>
      </trkpt>
      <trkpt lat="47.45594" lon="-2.32389">
        <ele>26</ele>
        <time>2016-07-22T05:01:15Z</time>
      </trkpt>
      <trkpt lat="47.45584" lon="-2.32371">
        <ele>27</ele>
        <time>2016-07-22T05:01:18Z</time>
      </trkpt>
      <trkpt lat="47.45555" lon="-2.32322">
        <ele>25</ele>
        <time>2016-07-22T05:01:26Z</time>
      </trkpt>
      <trkpt lat="47.45547" lon="-2.32311">
        <ele>25</ele>
        <time>2016-07-22T05:01:28Z</time>
      </trkpt>
      <trkpt lat="47.45522" lon="-2.32273">
        <ele>21</ele>
        <time>2016-07-22T05:01:35Z</time>
      </trkpt>
      <trkpt lat="47.45511" lon="-2.32255">
        <ele>21</ele>
        <time>2016-07-22T05:01:38Z</time>
      </trkpt>
      <trkpt lat="47.45496" lon="-2.32212">
        <ele>21</ele>
        <time>2016-07-22T05:01:43Z</time>
      </trkpt>
      <trkpt lat="47.45477" lon="-2.32161">
        <ele>19</ele>
        <time>2016-07-22T05:01:50Z</time>
      </trkpt>
      <trkpt lat="47.4547" lon="-2.32136">
        <ele>19</ele>
        <time>2016-07-22T05:01:53Z</time>
      </trkpt>
      <trkpt lat="47.45453" lon="-2.32055">
        <ele>23</ele>
        <time>2016-07-22T05:02:02Z</time>
      </trkpt>
      <trkpt lat="47.45452" lon="-2.32045">
        <ele>19</ele>
        <time>2016-07-22T05:02:03Z</time>
      </trkpt>
      <trkpt lat="47.45448" lon="-2.31985">
        <ele>18</ele>
        <time>2016-07-22T05:02:08Z</time>
      </trkpt>
      <trkpt lat="47.45444" lon="-2.31921">
        <ele>16</ele>
        <time>2016-07-22T05:02:14Z</time>
      </trkpt>
      <trkpt lat="47.45441" lon="-2.31877">
        <ele>18</ele>
        <time>2016-07-22T05:02:18Z</time>
      </trkpt>
      <trkpt lat="47.45437" lon="-2.31829">
        <ele>17</ele>
        <time>2016-07-22T05:02:23Z</time>
      </trkpt>
      <trkpt lat="47.45434" lon="-2.31761">
        <ele>18</ele>
        <time>2016-07-22T05:02:30Z</time>
      </trkpt>
      <trkpt lat="47.45432" lon="-2.31735">
        <ele>17</ele>
        <time>2016-07-22T05:02:33Z</time>
      </trkpt>
      <trkpt lat="47.45429" lon="-2.31695">
        <ele>16</ele>
        <time>2016-07-22T05:02:38Z</time>
      </trkpt>
      <trkpt lat="47.45429" lon="-2.31638">
        <ele>16</ele>
        <time>2016-07-22T05:02:44Z</time>
      </trkpt>
      <trkpt lat="47.45428" lon="-2.31609">
        <ele>15</ele>
        <time>2016-07-22T05:02:48Z</time>
      </trkpt>
      <trkpt lat="47.45407" lon="-2.31575">
        <ele>13</ele>
        <time>2016-07-22T05:02:56Z</time>
      </trkpt>
      <trkpt lat="47.45372" lon="-2.31579">
        <ele>13</ele>
        <time>2016-07-22T05:03:02Z</time>
      </trkpt>
      <trkpt lat="47.45367" lon="-2.3158">
        <ele>12</ele>
        <time>2016-07-22T05:03:03Z</time>
      </trkpt>
      <trkpt lat="47.45336" lon="-2.31571">
        <ele>14</ele>
        <time>2016-07-22T05:03:08Z</time>
      </trkpt>
      <trkpt lat="47.4529" lon="-2.31553">
        <ele>11</ele>
        <time>2016-07-22T05:03:16Z</time>
      </trkpt>
      <trkpt lat="47.4528" lon="-2.31545">
        <ele>11</ele>
        <time>2016-07-22T05:03:18Z</time>
      </trkpt>
      <trkpt lat="47.45244" lon="-2.31509">
        <ele>12</ele>
        <time>2016-07-22T05:03:25Z</time>
      </trkpt>
      <trkpt lat="47.45215" lon="-2.31497">
        <ele>10</ele>
        <time>2016-07-22T05:03:31Z</time>
      </trkpt>
      <trkpt lat="47.45199" lon="-2.31491">
        <ele>9</ele>
        <time>2016-07-22T05:03:34Z</time>
      </trkpt>
      <trkpt lat="47.45178" lon="-2.3148">
        <ele>8</ele>
        <time>2016-07-22T05:03:38Z</time>
      </trkpt>
      <trkpt lat="47.45135" lon="-2.31458">
        <ele>7</ele>
        <time>2016-07-22T05:03:46Z</time>
      </trkpt>
      <trkpt lat="47.45104" lon="-2.31441">
        <ele>6</ele>
        <time>2016-07-22T05:03:52Z</time>
      </trkpt>
      <trkpt lat="47.45099" lon="-2.31436">
        <ele>6</ele>
        <time>2016-07-22T05:03:53Z</time>
      </trkpt>
      <trkpt lat="47.45073" lon="-2.3142">
        <ele>5</ele>
        <time>2016-07-22T05:03:58Z</time>
      </trkpt>
      <trkpt lat="47.4505" lon="-2.31406">
        <ele>4</ele>
        <time>2016-07-22T05:04:03Z</time>
      </trkpt>
      <trkpt lat="47.45027" lon="-2.31397">
        <ele>5</ele>
        <time>2016-07-22T05:04:08Z</time>
      </trkpt>
      <trkpt lat="47.45017" lon="-2.31392">
        <ele>5</ele>
        <time>2016-07-22T05:04:13Z</time>
      </trkpt>
    </trkseg>
  </trk>
</gpx>